sensor_id;sensor_type;location;lat;lon;timestamp;pressure;altitude;pressure_sealevel;temperature;humidity
75063;BME280;63981;51.052;13.754;2023-12-20T00:01:32;100135.31;;;5.40;100.00
75063;BME280;63981;51.052;13.754;2023-12-20T00:03:58;100135.31;;;5.40;100.00
75063;BME280;63981;51.052;13.754;2023-12-20T00:06:24;100131.03;;;5.39;100.00
75063;BME280;63981;51.052;13.754;2023-12-20T00:08:50;100128.25;;;5.42;100.00
75063;BME280;63981;51.052;13.754;2023-12-20T00:11:16;100128.81;;;5.30;100.00
75063;BME280;63981;51.052;13.754;2023-12-20T00:13:42;100133.06;;;5.32;100.00
75063;BME280;63981;51.052;13.754;2023-12-20T00:16:08;100130.81;;;5.25;100.00
75063;BME280;63981;51.052;13.754;2023-12-20T00:20:59;100107.53;;;6.29;100.00
75063;BME280;63981;51.052;13.754;2023-12-20T00:23:25;100114.47;;;6.12;100.00
75063;BME280;63981;51.052;13.754;2023-12-20T00:25:51;100122.13;;;5.98;100.00
75063;BME280;63981;51.052;13.754;2023-12-20T00:28:17;100110.28;;;5.91;100.00
75063;BME280;63981;51.052;13.754;2023-12-20T00:30:43;100112.38;;;5.83;100.00
75063;BME280;63981;51.052;13.754;2023-12-20T00:33:09;100117.41;;;5.69;100.00
75063;BME280;63981;51.052;13.754;2023-12-20T00:35:36;100105.97;;;5.71;100.00
75063;BME280;63981;51.052;13.754;2023-12-20T00:38:02;100123.88;;;5.61;100.00
75063;BME280;63981;51.052;13.754;2023-12-20T00:40:28;100118.78;;;5.58;100.00
75063;BME280;63981;51.052;13.754;2023-12-20T00:42:54;100123.53;;;5.50;100.00
75063;BME280;63981;51.052;13.754;2023-12-20T00:45:20;100120.84;;;5.52;100.00
75063;BME280;63981;51.052;13.754;2023-12-20T00:47:46;100112.78;;;5.56;100.00
75063;BME280;63981;51.052;13.754;2023-12-20T00:50:12;100113.41;;;5.61;100.00
75063;BME280;63981;51.052;13.754;2023-12-20T00:52:38;100108.03;;;5.65;100.00
75063;BME280;63981;51.052;13.754;2023-12-20T00:55:04;100096.81;;;5.62;100.00
75063;BME280;63981;51.052;13.754;2023-12-20T00:57:31;100101.34;;;5.40;100.00
75063;BME280;63981;51.052;13.754;2023-12-20T00:59:57;100096.69;;;5.28;100.00
75063;BME280;63981;51.052;13.754;2023-12-20T01:02:23;100090.47;;;5.30;100.00
75063;BME280;63981;51.052;13.754;2023-12-20T01:04:49;100097.69;;;5.25;100.00
75063;BME280;63981;51.052;13.754;2023-12-20T01:07:15;100093.38;;;5.24;100.00
75063;BME280;63981;51.052;13.754;2023-12-20T01:09:42;100077.69;;;5.24;100.00
75063;BME280;63981;51.052;13.754;2023-12-20T01:12:10;100082.44;;;5.35;100.00
75063;BME280;63981;51.052;13.754;2023-12-20T01:14:36;100085.91;;;5.36;100.00
75063;BME280;63981;51.052;13.754;2023-12-20T01:17:02;100070.91;;;5.39;100.00
75063;BME280;63981;51.052;13.754;2023-12-20T01:19:28;100078.59;;;5.42;100.00
75063;BME280;63981;51.052;13.754;2023-12-20T01:21:55;100066.38;;;5.43;100.00
75063;BME280;63981;51.052;13.754;2023-12-20T01:24:21;100053.88;;;5.30;100.00
75063;BME280;63981;51.052;13.754;2023-12-20T01:26:47;100073.88;;;5.31;100.00
75063;BME280;63981;51.052;13.754;2023-12-20T01:29:13;100051.06;;;5.16;100.00
75063;BME280;63981;51.052;13.754;2023-12-20T01:31:40;100063.88;;;5.22;100.00
75063;BME280;63981;51.052;13.754;2023-12-20T01:34:06;100066.47;;;5.22;100.00
75063;BME280;63981;51.052;13.754;2023-12-20T01:36:32;100063.22;;;5.17;100.00
75063;BME280;63981;51.052;13.754;2023-12-20T01:38:58;100066.59;;;5.19;100.00
75063;BME280;63981;51.052;13.754;2023-12-20T01:41:24;100061.81;;;5.29;100.00
75063;BME280;63981;51.052;13.754;2023-12-20T01:43:50;100047.66;;;5.33;100.00
75063;BME280;63981;51.052;13.754;2023-12-20T01:46:17;100041.47;;;5.36;100.00
75063;BME280;63981;51.052;13.754;2023-12-20T01:48:43;100051.69;;;5.40;100.00
75063;BME280;63981;51.052;13.754;2023-12-20T01:51:09;100044.06;;;5.36;100.00
75063;BME280;63981;51.052;13.754;2023-12-20T01:53:37;100050.22;;;5.35;100.00
75063;BME280;63981;51.052;13.754;2023-12-20T01:56:04;100053.81;;;5.32;100.00
75063;BME280;63981;51.052;13.754;2023-12-20T01:58:30;100045.97;;;5.32;100.00
75063;BME280;63981;51.052;13.754;2023-12-20T02:00:57;100049.66;;;5.28;100.00
75063;BME280;63981;51.052;13.754;2023-12-20T02:03:23;100046.88;;;5.31;100.00
75063;BME280;63981;51.052;13.754;2023-12-20T02:05:50;100058.09;;;5.33;100.00
75063;BME280;63981;51.052;13.754;2023-12-20T02:08:16;100041.75;;;5.29;100.00
75063;BME280;63981;51.052;13.754;2023-12-20T02:10:42;100040.75;;;5.32;100.00
75063;BME280;63981;51.052;13.754;2023-12-20T02:13:08;100026.06;;;5.29;100.00
75063;BME280;63981;51.052;13.754;2023-12-20T02:15:35;100030.94;;;5.37;100.00
75063;BME280;63981;51.052;13.754;2023-12-20T02:18:03;100023.28;;;5.32;100.00
75063;BME280;63981;51.052;13.754;2023-12-20T02:20:30;100016.25;;;5.35;100.00
75063;BME280;63981;51.052;13.754;2023-12-20T02:22:56;100039.16;;;5.47;100.00
75063;BME280;63981;51.052;13.754;2023-12-20T02:25:22;100033.53;;;5.37;100.00
75063;BME280;63981;51.052;13.754;2023-12-20T02:27:48;100031.22;;;5.31;100.00
75063;BME280;63981;51.052;13.754;2023-12-20T02:30:15;100029.50;;;5.30;100.00
75063;BME280;63981;51.052;13.754;2023-12-20T02:32:41;100024.94;;;5.35;100.00
75063;BME280;63981;51.052;13.754;2023-12-20T02:35:07;100023.28;;;5.32;100.00
75063;BME280;63981;51.052;13.754;2023-12-20T02:37:33;100008.16;;;5.22;100.00
75063;BME280;63981;51.052;13.754;2023-12-20T02:40:00;100020.13;;;5.26;100.00
75063;BME280;63981;51.052;13.754;2023-12-20T02:42:26;100011.16;;;5.31;100.00
75063;BME280;63981;51.052;13.754;2023-12-20T02:44:52;100007.00;;;5.27;100.00
75063;BME280;63981;51.052;13.754;2023-12-20T02:47:18;99994.25;;;5.21;100.00
75063;BME280;63981;51.052;13.754;2023-12-20T02:49:44;100005.06;;;5.31;100.00
75063;BME280;63981;51.052;13.754;2023-12-20T02:52:10;100006.66;;;5.35;100.00
75063;BME280;63981;51.052;13.754;2023-12-20T02:54:36;99998.31;;;5.27;100.00
75063;BME280;63981;51.052;13.754;2023-12-20T02:57:02;100012.31;;;5.26;100.00
75063;BME280;63981;51.052;13.754;2023-12-20T02:59:29;100008.59;;;5.30;100.00
75063;BME280;63981;51.052;13.754;2023-12-20T03:01:55;100008.75;;;5.27;100.00
75063;BME280;63981;51.052;13.754;2023-12-20T03:04:21;100010.44;;;5.28;100.00
75063;BME280;63981;51.052;13.754;2023-12-20T03:06:47;100007.00;;;5.27;100.00
75063;BME280;63981;51.052;13.754;2023-12-20T03:09:13;100003.63;;;5.25;100.00
75063;BME280;63981;51.052;13.754;2023-12-20T03:11:39;99999.22;;;5.26;100.00
75063;BME280;63981;51.052;13.754;2023-12-20T03:14:05;99993.84;;;5.29;100.00
75063;BME280;63981;51.052;13.754;2023-12-20T03:16:31;99996.47;;;5.29;100.00
75063;BME280;63981;51.052;13.754;2023-12-20T03:18:58;99994.09;;;5.24;100.00
75063;BME280;63981;51.052;13.754;2023-12-20T03:21:24;100005.53;;;5.22;100.00
75063;BME280;63981;51.052;13.754;2023-12-20T03:23:50;99998.16;;;5.30;100.00
75063;BME280;63981;51.052;13.754;2023-12-20T03:26:16;99979.03;;;5.29;100.00
75063;BME280;63981;51.052;13.754;2023-12-20T03:28:43;99987.59;;;5.50;100.00
75063;BME280;63981;51.052;13.754;2023-12-20T03:31:09;99973.34;;;5.39;100.00
75063;BME280;63981;51.052;13.754;2023-12-20T03:33:35;99974.28;;;5.38;100.00
75063;BME280;63981;51.052;13.754;2023-12-20T03:36:01;99974.03;;;5.42;100.00
75063;BME280;63981;51.052;13.754;2023-12-20T03:38:28;99971.81;;;5.35;100.00
75063;BME280;63981;51.052;13.754;2023-12-20T03:40:54;99964.50;;;5.41;100.00
75063;BME280;63981;51.052;13.754;2023-12-20T03:43:20;99968.66;;;5.45;100.00
75063;BME280;63981;51.052;13.754;2023-12-20T03:45:46;99970.44;;;5.45;100.00
75063;BME280;63981;51.052;13.754;2023-12-20T03:48:12;99973.34;;;5.39;100.00
75063;BME280;63981;51.052;13.754;2023-12-20T03:50:38;99974.44;;;5.35;100.00
75063;BME280;63981;51.052;13.754;2023-12-20T03:53:04;99976.19;;;5.34;100.00
75063;BME280;63981;51.052;13.754;2023-12-20T03:55:30;99973.63;;;5.32;100.00
75063;BME280;63981;51.052;13.754;2023-12-20T03:57:56;99966.19;;;5.42;100.00
75063;BME280;63981;51.052;13.754;2023-12-20T04:00:22;99963.59;;;5.42;100.00
75063;BME280;63981;51.052;13.754;2023-12-20T04:02:48;99968.88;;;5.41;100.00
75063;BME280;63981;51.052;13.754;2023-12-20T04:05:14;99978.75;;;5.36;100.00
75063;BME280;63981;51.052;13.754;2023-12-20T04:07:40;99974.28;;;5.38;100.00
75063;BME280;63981;51.052;13.754;2023-12-20T04:10:07;99967.34;;;5.37;100.00
75063;BME280;63981;51.052;13.754;2023-12-20T04:12:34;99973.19;;;5.42;100.00
75063;BME280;63981;51.052;13.754;2023-12-20T04:15:00;99965.50;;;5.39;100.00
75063;BME280;63981;51.052;13.754;2023-12-20T04:17:26;99966.28;;;5.41;100.00
75063;BME280;63981;51.052;13.754;2023-12-20T04:19:52;99971.34;;;5.44;100.00
75063;BME280;63981;51.052;13.754;2023-12-20T04:22:18;99978.06;;;5.49;100.00
75063;BME280;63981;51.052;13.754;2023-12-20T04:24:44;99974.44;;;5.52;100.00
75063;BME280;63981;51.052;13.754;2023-12-20T04:27:11;99966.53;;;5.53;100.00
75063;BME280;63981;51.052;13.754;2023-12-20T04:29:37;99969.97;;;5.54;100.00
75063;BME280;63981;51.052;13.754;2023-12-20T04:32:04;99970.66;;;5.57;100.00
75063;BME280;63981;51.052;13.754;2023-12-20T04:34:30;99961.59;;;5.47;100.00
75063;BME280;63981;51.052;13.754;2023-12-20T04:36:56;99974.97;;;5.41;100.00
75063;BME280;63981;51.052;13.754;2023-12-20T04:39:22;99961.59;;;5.47;100.00
75063;BME280;63981;51.052;13.754;2023-12-20T04:41:48;99950.00;;;5.36;100.00
75063;BME280;63981;51.052;13.754;2023-12-20T04:44:15;99961.97;;;5.40;100.00
75063;BME280;63981;51.052;13.754;2023-12-20T04:46:42;99961.06;;;5.41;100.00
75063;BME280;63981;51.052;13.754;2023-12-20T04:49:08;99972.97;;;5.46;100.00
75063;BME280;63981;51.052;13.754;2023-12-20T04:51:34;99963.50;;;5.44;100.00
75063;BME280;63981;51.052;13.754;2023-12-20T04:54:01;99948.13;;;5.38;100.00
75063;BME280;63981;51.052;13.754;2023-12-20T04:56:27;99982.22;;;5.53;100.00
75063;BME280;63981;51.052;13.754;2023-12-20T04:58:53;99978.38;;;5.60;100.00
75063;BME280;63981;51.052;13.754;2023-12-20T05:01:19;99977.47;;;5.61;100.00
75063;BME280;63981;51.052;13.754;2023-12-20T05:03:46;99979.47;;;5.74;100.00
75063;BME280;63981;51.052;13.754;2023-12-20T05:06:12;99986.31;;;5.76;100.00
75063;BME280;63981;51.052;13.754;2023-12-20T05:08:38;99970.59;;;5.76;100.00
75063;BME280;63981;51.052;13.754;2023-12-20T05:11:05;99981.06;;;5.76;100.00
75063;BME280;63981;51.052;13.754;2023-12-20T05:13:31;99982.75;;;5.77;100.00
75063;BME280;63981;51.052;13.754;2023-12-20T05:15:57;99981.22;;;5.73;100.00
75063;BME280;63981;51.052;13.754;2023-12-20T05:18:23;99968.59;;;5.64;100.00
75063;BME280;63981;51.052;13.754;2023-12-20T05:20:50;99976.38;;;5.66;100.00
75063;BME280;63981;51.052;13.754;2023-12-20T05:23:16;99967.13;;;5.58;100.00
75063;BME280;63981;51.052;13.754;2023-12-20T05:25:43;99990.75;;;5.74;100.00
75063;BME280;63981;51.052;13.754;2023-12-20T05:28:09;99997.28;;;5.83;100.00
75063;BME280;63981;51.052;13.754;2023-12-20T05:30:35;99996.16;;;5.88;100.00
75063;BME280;63981;51.052;13.754;2023-12-20T05:33:01;99998.72;;;5.90;100.00
75063;BME280;63981;51.052;13.754;2023-12-20T05:35:27;99980.16;;;5.95;100.00
75063;BME280;63981;51.052;13.754;2023-12-20T05:37:53;99994.72;;;6.00;100.00
75063;BME280;63981;51.052;13.754;2023-12-20T05:40:19;99990.53;;;5.96;100.00
75063;BME280;63981;51.052;13.754;2023-12-20T05:42:45;99981.25;;;5.90;100.00
75063;BME280;63981;51.052;13.754;2023-12-20T05:45:11;99991.94;;;5.86;100.00
75063;BME280;63981;51.052;13.754;2023-12-20T05:47:37;99997.59;;;5.77;100.00
75063;BME280;63981;51.052;13.754;2023-12-20T05:50:04;99997.44;;;5.80;100.00
75063;BME280;63981;51.052;13.754;2023-12-20T05:52:31;100003.94;;;5.90;100.00
75063;BME280;63981;51.052;13.754;2023-12-20T05:54:59;100001.66;;;5.82;100.00
75063;BME280;63981;51.052;13.754;2023-12-20T05:57:27;100001.84;;;5.79;100.00
75063;BME280;63981;51.052;13.754;2023-12-20T05:59:53;100006.69;;;5.87;100.00
75063;BME280;63981;51.052;13.754;2023-12-20T06:02:19;100007.31;;;5.92;100.00
75063;BME280;63981;51.052;13.754;2023-12-20T06:04:45;100014.00;;;5.98;100.00
75063;BME280;63981;51.052;13.754;2023-12-20T06:07:12;100010.06;;;5.89;100.00
75063;BME280;63981;51.052;13.754;2023-12-20T06:09:38;100019.47;;;5.93;100.00
75063;BME280;63981;51.052;13.754;2023-12-20T06:12:04;100020.25;;;5.95;100.00
75063;BME280;63981;51.052;13.754;2023-12-20T06:14:31;100007.00;;;5.98;100.00
75063;BME280;63981;51.052;13.754;2023-12-20T06:16:57;100004.00;;;5.88;100.00
75063;BME280;63981;51.052;13.754;2023-12-20T06:19:23;100011.94;;;5.87;100.00
75063;BME280;63981;51.052;13.754;2023-12-20T06:21:49;100014.16;;;5.95;100.00
75063;BME280;63981;51.052;13.754;2023-12-20T06:24:15;100015.94;;;5.94;100.00
75063;BME280;63981;51.052;13.754;2023-12-20T06:26:41;100018.47;;;5.96;100.00
75063;BME280;63981;51.052;13.754;2023-12-20T06:29:08;100018.31;;;5.99;100.00
75063;BME280;63981;51.052;13.754;2023-12-20T06:31:34;100013.16;;;5.97;100.00
75063;BME280;63981;51.052;13.754;2023-12-20T06:34:00;100020.09;;;5.98;100.00
75063;BME280;63981;51.052;13.754;2023-12-20T06:36:27;100015.47;;;5.86;100.00
75063;BME280;63981;51.052;13.754;2023-12-20T06:38:53;100023.63;;;5.97;100.00
75063;BME280;63981;51.052;13.754;2023-12-20T06:41:19;100037.63;;;5.96;100.00
75063;BME280;63981;51.052;13.754;2023-12-20T06:43:45;100039.09;;;6.02;100.00
75063;BME280;63981;51.052;13.754;2023-12-20T06:46:11;100045.28;;;6.01;100.00
75063;BME280;63981;51.052;13.754;2023-12-20T06:48:39;100039.41;;;5.96;100.00
75063;BME280;63981;51.052;13.754;2023-12-20T06:51:06;100030.44;;;5.82;100.00
75063;BME280;63981;51.052;13.754;2023-12-20T06:53:32;100057.78;;;5.94;100.00
75063;BME280;63981;51.052;13.754;2023-12-20T06:55:58;100059.66;;;5.92;100.00
75063;BME280;63981;51.052;13.754;2023-12-20T06:58:24;100062.88;;;5.97;100.00
75063;BME280;63981;51.052;13.754;2023-12-20T07:00:50;100069.34;;;5.90;100.00
75063;BME280;63981;51.052;13.754;2023-12-20T07:03:17;100073.13;;;5.83;100.00
75063;BME280;63981;51.052;13.754;2023-12-20T07:05:43;100060.81;;;5.85;100.00
75063;BME280;63981;51.052;13.754;2023-12-20T07:08:10;100066.78;;;5.88;100.00
75063;BME280;63981;51.052;13.754;2023-12-20T07:10:36;100038.97;;;5.69;100.00
75063;BME280;63981;51.052;13.754;2023-12-20T07:13:03;100072.72;;;5.92;100.00
75063;BME280;63981;51.052;13.754;2023-12-20T07:15:29;100056.03;;;5.95;100.00
75063;BME280;63981;51.052;13.754;2023-12-20T07:17:55;100059.72;;;5.90;100.00
75063;BME280;63981;51.052;13.754;2023-12-20T07:20:21;100058.47;;;5.98;100.00
75063;BME280;63981;51.052;13.754;2023-12-20T07:22:47;100065.34;;;6.00;100.00
75063;BME280;63981;51.052;13.754;2023-12-20T07:25:13;100072.19;;;6.03;100.00
75063;BME280;63981;51.052;13.754;2023-12-20T07:27:39;100070.59;;;6.00;100.00
75063;BME280;63981;51.052;13.754;2023-12-20T07:30:06;100082.59;;;6.04;100.00
75063;BME280;63981;51.052;13.754;2023-12-20T07:32:33;100079.66;;;5.93;100.00
75063;BME280;63981;51.052;13.754;2023-12-20T07:34:59;59972.66;;;-144.77;100.00
75063;BME280;63981;51.052;13.754;2023-12-20T07:37:25;100079.66;;;5.93;100.00
75063;BME280;63981;51.052;13.754;2023-12-20T07:39:51;100076.34;;;6.24;100.00
75063;BME280;63981;51.052;13.754;2023-12-20T07:42:17;100062.13;;;6.12;100.00
75063;BME280;63981;51.052;13.754;2023-12-20T07:44:43;100061.31;;;6.10;100.00
75063;BME280;63981;51.052;13.754;2023-12-20T07:47:09;100066.03;;;6.04;100.00
75063;BME280;63981;51.052;13.754;2023-12-20T07:49:37;100058.00;;;5.89;100.00
75063;BME280;63981;51.052;13.754;2023-12-20T07:52:04;100065.47;;;5.97;100.00
75063;BME280;63981;51.052;13.754;2023-12-20T07:54:30;100060.63;;;5.89;100.00
75063;BME280;63981;51.052;13.754;2023-12-20T07:56:57;100052.44;;;5.78;100.00
75063;BME280;63981;51.052;13.754;2023-12-20T07:59:23;100053.66;;;5.71;100.00
75063;BME280;63981;51.052;13.754;2023-12-20T08:01:49;100046.97;;;5.66;100.00
75063;BME280;63981;51.052;13.754;2023-12-20T08:04:15;100042.09;;;5.58;100.00
75063;BME280;63981;51.052;13.754;2023-12-20T08:06:41;100054.19;;;5.60;100.00
75063;BME280;63981;51.052;13.754;2023-12-20T08:09:07;100061.25;;;5.58;100.00
75063;BME280;63981;51.052;13.754;2023-12-20T08:11:33;100059.56;;;5.57;100.00
75063;BME280;63981;51.052;13.754;2023-12-20T08:13:59;100024.78;;;5.38;100.00
75063;BME280;63981;51.052;13.754;2023-12-20T08:16:26;100058.19;;;5.68;100.00
75063;BME280;63981;51.052;13.754;2023-12-20T08:18:52;100060.22;;;5.80;100.00
75063;BME280;63981;51.052;13.754;2023-12-20T08:21:18;100067.41;;;5.94;100.00
75063;BME280;63981;51.052;13.754;2023-12-20T08:23:46;100061.56;;;6.06;100.00
75063;BME280;63981;51.052;13.754;2023-12-20T08:26:13;100064.59;;;6.15;100.00
75063;BME280;63981;51.052;13.754;2023-12-20T08:28:39;100062.28;;;6.27;100.00
75063;BME280;63981;51.052;13.754;2023-12-20T08:31:05;100064.72;;;6.30;100.00
75063;BME280;63981;51.052;13.754;2023-12-20T08:33:31;100053.25;;;6.32;100.00
75063;BME280;63981;51.052;13.754;2023-12-20T08:35:57;100051.38;;;6.34;100.00
75063;BME280;63981;51.052;13.754;2023-12-20T08:38:24;100055.91;;;6.48;100.00
75063;BME280;63981;51.052;13.754;2023-12-20T08:40:50;100044.41;;;6.50;100.00
75063;BME280;63981;51.052;13.754;2023-12-20T08:43:16;100049.88;;;6.63;100.00
75063;BME280;63981;51.052;13.754;2023-12-20T08:45:42;100048.78;;;6.67;100.00
75063;BME280;63981;51.052;13.754;2023-12-20T08:48:08;100051.06;;;6.73;100.00
75063;BME280;63981;51.052;13.754;2023-12-20T08:50:34;100057.00;;;6.77;100.00
75063;BME280;63981;51.052;13.754;2023-12-20T08:53:00;100039.94;;;6.86;100.00
75063;BME280;63981;51.052;13.754;2023-12-20T08:55:26;100059.66;;;6.93;100.00
75063;BME280;63981;51.052;13.754;2023-12-20T08:57:54;100053.22;;;6.98;100.00
75063;BME280;63981;51.052;13.754;2023-12-20T09:00:20;100057.53;;;6.99;100.00
75063;BME280;63981;51.052;13.754;2023-12-20T09:02:46;100059.88;;;6.88;100.00
75063;BME280;63981;51.052;13.754;2023-12-20T09:05:12;100059.13;;;6.86;100.00
75063;BME280;63981;51.052;13.754;2023-12-20T09:07:39;100055.75;;;6.84;100.00
75063;BME280;63981;51.052;13.754;2023-12-20T09:10:05;100044.34;;;6.85;100.00
75063;BME280;63981;51.052;13.754;2023-12-20T09:12:31;100046.75;;;7.05;100.00
75063;BME280;63981;51.052;13.754;2023-12-20T09:14:57;100044.59;;;7.28;100.00
75063;BME280;63981;51.052;13.754;2023-12-20T09:17:23;100041.31;;;7.40;100.00
75063;BME280;63981;51.052;13.754;2023-12-20T09:19:49;100055.84;;;7.61;100.00
75063;BME280;63981;51.052;13.754;2023-12-20T09:22:18;100037.06;;;7.69;100.00
75063;BME280;63981;51.052;13.754;2023-12-20T09:24:44;100034.56;;;7.82;100.00
75063;BME280;63981;51.052;13.754;2023-12-20T09:27:10;100034.22;;;7.88;100.00
75063;BME280;63981;51.052;13.754;2023-12-20T09:29:36;100039.31;;;8.05;100.00
75063;BME280;63981;51.052;13.754;2023-12-20T09:32:03;100044.88;;;8.29;100.00
75063;BME280;63981;51.052;13.754;2023-12-20T09:34:29;100032.38;;;8.34;100.00
75063;BME280;63981;51.052;13.754;2023-12-20T09:36:55;100024.59;;;8.47;100.00
75063;BME280;63981;51.052;13.754;2023-12-20T09:39:21;100012.44;;;8.30;100.00
75063;BME280;63981;51.052;13.754;2023-12-20T09:41:59;100023.63;;;8.34;100.00
75063;BME280;63981;51.052;13.754;2023-12-20T09:44:26;100013.66;;;8.24;100.00
75063;BME280;63981;51.052;13.754;2023-12-20T09:46:52;100014.50;;;8.25;100.00
75063;BME280;63981;51.052;13.754;2023-12-20T09:49:20;100013.81;;;8.37;100.00
75063;BME280;63981;51.052;13.754;2023-12-20T09:51:47;100012.78;;;8.54;100.00
75063;BME280;63981;51.052;13.754;2023-12-20T09:54:16;100005.19;;;8.64;100.00
75063;BME280;63981;51.052;13.754;2023-12-20T09:56:42;100033.31;;;8.90;100.00
75063;BME280;63981;51.052;13.754;2023-12-20T09:59:08;100003.44;;;9.05;100.00
75063;BME280;63981;51.052;13.754;2023-12-20T10:01:35;99994.28;;;9.11;100.00
75063;BME280;63981;51.052;13.754;2023-12-20T10:04:05;99997.75;;;9.26;100.00
75063;BME280;63981;51.052;13.754;2023-12-20T10:06:39;99979.50;;;8.96;100.00
75063;BME280;63981;51.052;13.754;2023-12-20T10:09:05;99985.09;;;8.77;100.00
75063;BME280;63981;51.052;13.754;2023-12-20T10:11:31;99995.53;;;8.50;100.00
75063;BME280;63981;51.052;13.754;2023-12-20T10:14:00;99991.44;;;8.30;100.00
75063;BME280;63981;51.052;13.754;2023-12-20T10:16:27;99989.00;;;8.27;100.00
75063;BME280;63981;51.052;13.754;2023-12-20T10:18:54;99981.03;;;8.28;100.00
75063;BME280;63981;51.052;13.754;2023-12-20T10:21:22;99956.25;;;8.04;100.00
75063;BME280;63981;51.052;13.754;2023-12-20T10:23:49;99975.41;;;8.20;100.00
75063;BME280;63981;51.052;13.754;2023-12-20T10:26:19;99973.91;;;8.31;100.00
75063;BME280;63981;51.052;13.754;2023-12-20T10:28:53;99973.16;;;8.28;100.00
75063;BME280;63981;51.052;13.754;2023-12-20T10:31:33;99964.63;;;8.25;100.00
75063;BME280;63981;51.052;13.754;2023-12-20T10:34:00;99976.34;;;8.34;100.00
75063;BME280;63981;51.052;13.754;2023-12-20T10:36:29;99964.94;;;8.35;100.00
75063;BME280;63981;51.052;13.754;2023-12-20T10:38:56;99958.09;;;8.46;100.00
75063;BME280;63981;51.052;13.754;2023-12-20T10:41:31;99960.41;;;8.65;100.00
75063;BME280;63981;51.052;13.754;2023-12-20T10:43:58;99970.22;;;8.90;100.00
75063;BME280;63981;51.052;13.754;2023-12-20T10:46:26;99960.94;;;8.99;100.00
75063;BME280;63981;51.052;13.754;2023-12-20T10:48:54;99935.69;;;8.82;100.00
75063;BME280;63981;51.052;13.754;2023-12-20T10:51:22;99944.41;;;8.82;100.00
75063;BME280;63981;51.052;13.754;2023-12-20T10:53:48;99933.97;;;8.95;100.00
75063;BME280;63981;51.052;13.754;2023-12-20T10:56:17;99919.44;;;9.16;100.00
75063;BME280;63981;51.052;13.754;2023-12-20T10:58:48;99935.97;;;9.19;100.00
75063;BME280;63981;51.052;13.754;2023-12-20T11:01:16;99928.72;;;9.22;100.00
75063;BME280;63981;51.052;13.754;2023-12-20T11:03:51;99931.28;;;9.36;98.58
75063;BME280;63981;51.052;13.754;2023-12-20T11:12:09;99926.44;;;10.08;94.75
75063;BME280;63981;51.052;13.754;2023-12-20T11:14:48;99924.88;;;10.44;87.24
75063;BME280;63981;51.052;13.754;2023-12-20T11:17:15;99922.88;;;10.22;86.83
75063;BME280;63981;51.052;13.754;2023-12-20T11:20:06;99930.53;;;10.12;82.92
75063;BME280;63981;51.052;13.754;2023-12-20T11:22:34;99925.81;;;9.79;81.00
75063;BME280;63981;51.052;13.754;2023-12-20T11:25:09;99925.44;;;9.58;81.22
75063;BME280;63981;51.052;13.754;2023-12-20T11:27:42;99922.16;;;9.42;86.75
75063;BME280;63981;51.052;13.754;2023-12-20T11:30:11;99927.03;;;9.21;86.19
75063;BME280;63981;51.052;13.754;2023-12-20T11:32:39;99940.75;;;8.99;87.79
75063;BME280;63981;51.052;13.754;2023-12-20T11:37:38;99919.66;;;8.72;90.40
75063;BME280;63981;51.052;13.754;2023-12-20T11:40:06;99924.91;;;8.72;93.47
75063;BME280;63981;51.052;13.754;2023-12-20T11:42:38;99911.78;;;8.72;94.67
75063;BME280;63981;51.052;13.754;2023-12-20T11:45:05;99916.59;;;8.66;91.13
75063;BME280;63981;51.052;13.754;2023-12-20T11:47:31;99898.59;;;8.45;89.36
75063;BME280;63981;51.052;13.754;2023-12-20T11:50:00;99909.19;;;8.29;91.37
75063;BME280;63981;51.052;13.754;2023-12-20T11:52:29;99894.75;;;8.22;87.93
75063;BME280;63981;51.052;13.754;2023-12-20T11:54:57;99900.47;;;8.15;91.33
75063;BME280;63981;51.052;13.754;2023-12-20T11:57:23;99900.00;;;8.22;97.72
75063;BME280;63981;51.052;13.754;2023-12-20T11:59:49;99877.78;;;8.14;93.54
75063;BME280;63981;51.052;13.754;2023-12-20T12:02:16;99889.13;;;8.14;97.89
75063;BME280;63981;51.052;13.754;2023-12-20T12:04:42;99882.19;;;8.13;98.72
75063;BME280;63981;51.052;13.754;2023-12-20T12:07:08;99874.41;;;8.12;94.26
75063;BME280;63981;51.052;13.754;2023-12-20T12:09:34;99871.91;;;8.10;91.84
75063;BME280;63981;51.052;13.754;2023-12-20T12:12:01;99872.75;;;7.96;93.17
75063;BME280;63981;51.052;13.754;2023-12-20T12:14:27;99867.75;;;8.06;94.37
75063;BME280;63981;51.052;13.754;2023-12-20T12:16:53;99862.69;;;8.17;95.56
75063;BME280;63981;51.052;13.754;2023-12-20T12:19:24;99863.91;;;8.12;96.62
75063;BME280;63981;51.052;13.754;2023-12-20T12:21:51;99873.28;;;8.02;94.02
75063;BME280;63981;51.052;13.754;2023-12-20T12:24:20;99859.13;;;8.04;98.08
75063;BME280;63981;51.052;13.754;2023-12-20T12:26:51;99847.78;;;8.04;95.69
75063;BME280;63981;51.052;13.754;2023-12-20T12:29:17;99853.13;;;8.02;94.40
75063;BME280;63981;51.052;13.754;2023-12-20T12:31:43;99847.97;;;8.01;96.13
75063;BME280;63981;51.052;13.754;2023-12-20T12:34:09;99839.38;;;7.98;93.88
75063;BME280;63981;51.052;13.754;2023-12-20T12:36:36;99834.75;;;8.02;98.28
75063;BME280;63981;51.052;13.754;2023-12-20T12:39:03;99827.81;;;8.15;96.53
75063;BME280;63981;51.052;13.754;2023-12-20T12:41:31;99825.25;;;8.42;94.19
75063;BME280;63981;51.052;13.754;2023-12-20T12:43:57;99822.44;;;8.72;89.31
75063;BME280;63981;51.052;13.754;2023-12-20T12:46:24;99826.72;;;8.88;90.06
75063;BME280;63981;51.052;13.754;2023-12-20T12:48:50;99815.53;;;8.84;87.12
75063;BME280;63981;51.052;13.754;2023-12-20T12:51:16;99813.72;;;8.72;84.25
75063;BME280;63981;51.052;13.754;2023-12-20T12:53:42;99812.81;;;8.58;86.86